Time;durP1;ratioP1;P1;durP2;ratioP2;P2;SDS_P1;SDS_P2;PMS_P1;PMS_P2;Temp;Humidity;BMP_temperature;BMP_pressure;BME280_temperature;BME280_humidity;BME280_pressure;Samples;Min_cycle;Max_cycle;Signal;HPM_P1;HPM_P2
2021/01/19 00:02:10;;;;;;;11.77;8.55;;;6.70;86.50;;;;;;4998406;28;20032;-86
2021/01/19 00:04:36;;;;;;;15.63;9.13;;;6.70;86.50;;;;;;4983498;28;20022;-86
2021/01/19 00:07:02;;;;;;;20.00;14.65;;;6.70;86.40;;;;;;5005045;28;20296;-86
2021/01/19 00:09:28;;;;;;;17.33;12.13;;;6.70;86.40;;;;;;4985055;28;20034;-86
2021/01/19 00:11:53;;;;;;;14.80;10.43;;;6.70;86.40;;;;;;4999136;28;20069;-85
2021/01/19 00:14:19;;;;;;;20.67;14.05;;;6.70;86.40;;;;;;5001369;28;20030;-87
2021/01/19 00:16:45;;;;;;;14.00;9.07;;;6.70;86.40;;;;;;4972118;28;20023;-88
2021/01/19 00:19:10;;;;;;;11.57;9.20;;;6.70;86.40;;;;;;4979700;28;20046;-87
2021/01/19 00:21:36;;;;;;;13.55;9.90;;;6.70;86.40;;;;;;4983587;28;20049;-87
2021/01/19 00:24:02;;;;;;;19.05;12.27;;;6.70;86.40;;;;;;4984122;28;20034;-87
2021/01/19 00:26:27;;;;;;;23.60;13.80;;;6.70;86.30;;;;;;4996038;28;20029;-87
2021/01/19 00:28:53;;;;;;;11.93;9.18;;;6.70;86.30;;;;;;4991162;28;20077;-88
2021/01/19 00:31:18;;;;;;;14.05;8.48;;;6.70;86.30;;;;;;4991987;28;20030;-87
2021/01/19 00:33:44;;;;;;;13.02;8.30;;;6.70;86.30;;;;;;4991973;28;20476;-87
2021/01/19 00:36:10;;;;;;;15.43;8.82;;;6.70;86.30;;;;;;4973208;28;20093;-87
2021/01/19 00:38:35;;;;;;;12.80;8.20;;;6.70;86.20;;;;;;4991602;28;20463;-87
2021/01/19 00:41:01;;;;;;;11.52;7.78;;;6.70;86.10;;;;;;4985500;28;20153;-87
2021/01/19 00:43:26;;;;;;;12.07;7.13;;;6.70;86.20;;;;;;4990993;28;20026;-86
2021/01/19 00:45:52;;;;;;;13.45;7.32;;;6.70;86.20;;;;;;4990522;28;20041;-85
2021/01/19 00:48:17;;;;;;;11.10;6.15;;;6.60;86.10;;;;;;4998473;28;20113;-86
2021/01/19 00:50:44;;;;;;;14.40;8.05;;;6.60;86.10;;;;;;4986895;28;20029;-85
2021/01/19 00:53:09;;;;;;;12.52;6.38;;;6.60;85.90;;;;;;4972781;28;20041;-87
2021/01/19 00:55:35;;;;;;;9.50;5.78;;;6.60;85.90;;;;;;4985654;28;20066;-85
2021/01/19 00:58:00;;;;;;;12.98;7.30;;;6.50;85.90;;;;;;4994429;28;20062;-85
2021/01/19 01:00:26;;;;;;;11.05;5.45;;;6.60;85.90;;;;;;4989747;28;20035;-86
2021/01/19 01:02:51;;;;;;;12.35;7.53;;;6.60;85.80;;;;;;4992689;28;20468;-85
2021/01/19 01:05:17;;;;;;;10.07;5.53;;;6.50;85.80;;;;;;4991141;28;20030;-86
2021/01/19 01:07:42;;;;;;;8.88;4.88;;;6.50;85.70;;;;;;4988416;28;20442;-86
2021/01/19 01:10:11;;;;;;;15.00;7.47;;;6.50;85.60;;;;;;4991592;28;20106;-87
2021/01/19 01:12:36;;;;;;;12.80;5.47;;;6.50;85.50;;;;;;4993204;28;20018;-86
2021/01/19 01:15:04;;;;;;;9.95;5.07;;;6.50;85.50;;;;;;5013466;28;20066;-86
2021/01/19 01:17:33;;;;;;;9.57;4.65;;;6.50;85.50;;;;;;5008149;28;20007;-84
2021/01/19 01:19:58;;;;;;;10.50;5.20;;;6.50;85.50;;;;;;5012821;28;20019;-85
2021/01/19 01:22:24;;;;;;;9.98;4.22;;;6.50;85.30;;;;;;4996069;28;20125;-85
2021/01/19 01:24:49;;;;;;;8.70;3.72;;;6.50;85.30;;;;;;4993573;28;20033;-85
2021/01/19 01:27:15;;;;;;;7.70;4.00;;;6.50;85.20;;;;;;4976821;28;20034;-85
2021/01/19 01:29:40;;;;;;;11.18;3.70;;;6.50;85.10;;;;;;5005103;28;20053;-85
2021/01/19 01:32:06;;;;;;;8.38;4.00;;;6.50;85.00;;;;;;5008651;28;20038;-85
2021/01/19 01:34:31;;;;;;;9.45;3.90;;;6.50;84.80;;;;;;5008326;28;20075;-85
2021/01/19 01:36:57;;;;;;;6.78;3.55;;;6.50;84.80;;;;;;5010515;28;20030;-84
2021/01/19 01:39:22;;;;;;;7.60;3.58;;;6.40;84.60;;;;;;5009104;28;20011;-85
2021/01/19 01:41:48;;;;;;;7.75;3.30;;;6.50;84.60;;;;;;5008600;28;20061;-85
2021/01/19 01:44:13;;;;;;;9.18;3.67;;;6.40;84.50;;;;;;4999054;28;20544;-85
2021/01/19 01:46:39;;;;;;;6.70;2.95;;;6.40;84.30;;;;;;4990071;28;20026;-85
2021/01/19 01:49:05;;;;;;;9.50;3.70;;;6.40;84.30;;;;;;4993384;28;20053;-84
2021/01/19 01:51:32;;;;;;;11.05;4.07;;;6.40;84.20;;;;;;4989611;28;20070;-84
2021/01/19 01:54:01;;;;;;;9.13;4.28;;;6.40;84.10;;;;;;4969684;28;20015;-84
2021/01/19 01:56:27;;;;;;;12.40;3.45;;;6.40;84.00;;;;;;4973647;28;20027;-84
2021/01/19 01:58:53;;;;;;;9.15;3.65;;;6.40;83.90;;;;;;4981519;28;20026;-85
2021/01/19 02:01:19;;;;;;;11.38;3.50;;;6.30;83.70;;;;;;5005912;28;20519;-84
2021/01/19 02:03:45;;;;;;;13.05;4.60;;;6.40;83.70;;;;;;4990696;28;20027;-84
2021/01/19 02:06:15;;;;;;;11.43;4.03;;;6.40;83.50;;;;;;4992599;28;20117;-85
2021/01/19 02:08:49;;;;;;;9.63;2.88;;;6.30;83.20;;;;;;4974961;28;20448;-85
2021/01/19 02:11:32;;;;;;;13.05;3.90;;;6.30;83.10;;;;;;4986308;28;20061;-86
2021/01/19 02:14:21;;;;;;;8.70;2.63;;;6.30;83.00;;;;;;4982176;28;20022;-85
2021/01/19 02:17:05;;;;;;;9.98;3.50;;;6.30;82.90;;;;;;4973194;28;20120;-85
2021/01/19 02:19:31;;;;;;;14.32;4.10;;;6.30;82.70;;;;;;4992636;28;20042;-85
2021/01/19 02:22:33;;;;;;;7.75;3.10;;;6.30;82.60;;;;;;4992466;28;20042;-85
2021/01/19 02:25:08;;;;;;;8.55;3.22;;;6.30;82.60;;;;;;4993789;28;20030;-86
2021/01/19 02:28:11;;;;;;;10.15;3.97;;;6.30;82.60;;;;;;4994031;28;20085;-86
2021/01/19 02:31:07;;;;;;;12.77;3.90;;;6.30;82.50;;;;;;4996199;28;20030;-86
2021/01/19 02:33:48;;;;;;;8.07;2.70;;;6.30;82.60;;;;;;4951992;28;20035;-85
2021/01/19 02:36:35;;;;;;;7.00;2.65;;;6.30;82.60;;;;;;4991899;28;20034;-85
2021/01/19 02:39:03;;;;;;;8.60;3.17;;;6.30;82.40;;;;;;4987958;28;20030;-85
2021/01/19 02:41:30;;;;;;;10.27;3.20;;;6.30;82.20;;;;;;4991611;28;20096;-85
2021/01/19 02:44:22;;;;;;;8.00;2.42;;;6.30;82.20;;;;;;4991163;28;20018;-85
2021/01/19 02:46:53;;;;;;;8.93;3.08;;;6.30;82.10;;;;;;4997402;28;20027;-85
2021/01/19 02:49:19;;;;;;;8.15;2.70;;;6.30;82.00;;;;;;4993715;28;20050;-85
2021/01/19 02:51:47;;;;;;;9.93;2.85;;;6.30;81.60;;;;;;4972591;28;20032;-85
2021/01/19 02:54:14;;;;;;;8.63;2.50;;;6.30;81.60;;;;;;5003860;28;20019;-85
2021/01/19 02:57:08;;;;;;;6.22;1.92;;;6.30;81.50;;;;;;4992839;28;20058;-85
2021/01/19 02:59:40;;;;;;;6.35;2.60;;;6.30;81.70;;;;;;4980542;28;20034;-84
2021/01/19 03:02:09;;;;;;;13.05;3.85;;;6.20;81.50;;;;;;5005146;28;20026;-84
2021/01/19 03:04:36;;;;;;;7.03;2.88;;;6.20;81.60;;;;;;4988674;28;20106;-85
2021/01/19 03:07:04;;;;;;;7.70;3.20;;;6.20;81.60;;;;;;4980999;28;20022;-85
2021/01/19 03:09:34;;;;;;;8.40;3.05;;;6.10;81.70;;;;;;4995816;28;20061;-85
2021/01/19 03:12:00;;;;;;;7.53;2.38;;;6.10;81.90;;;;;;4991792;28;20026;-85
2021/01/19 03:14:26;;;;;;;6.55;2.42;;;6.10;82.00;;;;;;4972692;28;20219;-85
2021/01/19 03:17:01;;;;;;;9.70;2.95;;;6.10;81.90;;;;;;4972361;28;20106;-84
2021/01/19 03:19:29;;;;;;;5.53;2.40;;;6.10;81.90;;;;;;4990538;28;20022;-85
2021/01/19 03:21:54;;;;;;;5.18;2.40;;;6.10;82.00;;;;;;4987201;28;20038;-86
2021/01/19 03:24:20;;;;;;;6.25;2.92;;;6.10;82.10;;;;;;4989771;28;20380;-85
2021/01/19 03:26:45;;;;;;;12.90;4.07;;;6.10;82.10;;;;;;4972922;28;20081;-85
2021/01/19 03:29:11;;;;;;;9.25;2.97;;;6.10;82.20;;;;;;4990737;28;20030;-85
2021/01/19 03:31:36;;;;;;;9.50;3.22;;;6.10;82.40;;;;;;4988140;28;20025;-85
2021/01/19 03:34:02;;;;;;;15.35;4.93;;;6.00;82.40;;;;;;4995407;28;20091;-86
2021/01/19 03:36:27;;;;;;;10.50;4.05;;;6.00;82.50;;;;;;4992757;28;20061;-84
2021/01/19 03:38:53;;;;;;;14.23;4.20;;;6.00;82.70;;;;;;4986176;28;20022;-85
2021/01/19 03:41:18;;;;;;;9.73;3.38;;;6.00;82.90;;;;;;4974407;28;20404;-84
2021/01/19 03:43:44;;;;;;;9.82;3.78;;;5.90;83.10;;;;;;4990308;28;20029;-85
2021/01/19 03:46:09;;;;;;;11.85;4.43;;;5.90;83.20;;;;;;4976888;28;20022;-85
2021/01/19 03:48:35;;;;;;;11.35;4.38;;;5.80;84.00;;;;;;4993876;28;20019;-85
2021/01/19 03:51:01;;;;;;;14.40;4.93;;;5.80;83.60;;;;;;4973178;28;20341;-84
2021/01/19 03:53:26;;;;;;;11.02;3.88;;;5.80;83.80;;;;;;4990467;28;20109;-85
2021/01/19 03:55:52;;;;;;;12.38;4.65;;;5.80;84.20;;;;;;4976282;28;20064;-85
2021/01/19 03:58:17;;;;;;;11.25;4.70;;;5.80;84.30;;;;;;4998348;28;20030;-85
2021/01/19 04:00:43;;;;;;;10.32;4.30;;;5.80;84.40;;;;;;5003191;28;20499;-85
2021/01/19 04:03:08;;;;;;;10.93;4.75;;;5.80;84.50;;;;;;4990556;28;20030;-85
2021/01/19 04:05:34;;;;;;;12.30;5.90;;;5.80;84.60;;;;;;4990187;28;20472;-84
2021/01/19 04:07:59;;;;;;;11.13;4.45;;;5.80;84.80;;;;;;4985188;28;20480;-84
2021/01/19 04:10:25;;;;;;;11.18;4.25;;;5.80;85.00;;;;;;4990940;28;20030;-83
2021/01/19 04:12:50;;;;;;;11.50;4.70;;;5.80;85.20;;;;;;4989454;28;20037;-84
2021/01/19 04:15:16;;;;;;;10.02;4.32;;;5.70;85.30;;;;;;5009032;28;20057;-84
2021/01/19 04:17:42;;;;;;;8.85;4.78;;;5.70;85.50;;;;;;5007617;28;20035;-84
2021/01/19 04:20:08;;;;;;;11.07;5.30;;;5.70;85.70;;;;;;4994563;28;20388;-85
2021/01/19 04:22:34;;;;;;;11.20;5.80;;;5.70;86.00;;;;;;4970058;28;20031;-84
2021/01/19 04:24:59;;;;;;;11.75;4.68;;;5.70;86.10;;;;;;4997335;28;20037;-87
2021/01/19 04:27:25;;;;;;;6.82;3.60;;;5.70;86.40;;;;;;5009438;28;20037;-87
2021/01/19 04:29:51;;;;;;;11.10;5.20;;;5.70;86.40;;;;;;5007519;28;20022;-86
2021/01/19 04:32:16;;;;;;;15.13;6.43;;;5.70;86.50;;;;;;4973854;28;20026;-84
2021/01/19 04:34:42;;;;;;;8.95;4.60;;;5.70;86.60;;;;;;4973962;28;20131;-85
2021/01/19 04:37:08;;;;;;;13.80;5.80;;;5.70;86.90;;;;;;4987206;28;20113;-85
2021/01/19 04:39:33;;;;;;;7.95;4.00;;;5.60;86.90;;;;;;4991344;28;20467;-85
2021/01/19 04:41:59;;;;;;;12.73;6.50;;;5.70;87.00;;;;;;4992067;28;20039;-85
2021/01/19 04:44:27;;;;;;;11.35;6.57;;;5.70;87.10;;;;;;4990038;28;20083;-85
2021/01/19 04:46:53;;;;;;;12.95;7.40;;;5.70;87.30;;;;;;4982037;28;20033;-85
2021/01/19 04:49:19;;;;;;;10.30;5.70;;;5.60;87.60;;;;;;4975949;28;20038;-85
2021/01/19 04:51:47;;;;;;;9.85;5.32;;;5.60;87.80;;;;;;4991547;28;20081;-85
2021/01/19 04:54:17;;;;;;;8.80;4.72;;;5.70;87.90;;;;;;4969527;28;20026;-85
2021/01/19 04:56:50;;;;;;;9.07;5.15;;;5.70;87.90;;;;;;4966398;28;20030;-84
2021/01/19 04:59:23;;;;;;;9.60;5.03;;;5.70;88.00;;;;;;4970546;28;20031;-84
2021/01/19 05:01:55;;;;;;;11.15;5.82;;;5.70;88.10;;;;;;4984373;28;20042;-85
2021/01/19 05:04:27;;;;;;;10.13;5.93;;;5.60;88.30;;;;;;4988292;28;20392;-84
2021/01/19 05:07:13;;;;;;;8.73;4.82;;;5.70;88.40;;;;;;4970038;28;20154;-84
2021/01/19 05:09:53;;;;;;;9.13;5.03;;;5.60;88.40;;;;;;4993362;28;20026;-85
2021/01/19 05:12:29;;;;;;;10.10;5.38;;;5.70;88.50;;;;;;4984024;28;20031;-86
2021/01/19 05:14:55;;;;;;;6.43;4.50;;;5.70;88.50;;;;;;5001354;28;20500;-84
2021/01/19 05:17:23;;;;;;;10.40;6.25;;;5.70;88.50;;;;;;4972767;28;20100;-84
2021/01/19 05:19:51;;;;;;;8.50;4.75;;;5.70;88.50;;;;;;4998067;28;20033;-83
2021/01/19 05:22:19;;;;;;;5.88;3.20;;;5.70;88.60;;;;;;4978168;28;20138;-84
2021/01/19 05:24:47;;;;;;;8.18;4.57;;;5.70;88.60;;;;;;4983968;28;21865;-84
2021/01/19 05:27:13;;;;;;;8.63;4.60;;;5.80;89.30;;;;;;4972085;28;20447;-84
2021/01/19 05:29:39;;;;;;;6.30;4.40;;;5.80;88.60;;;;;;4989274;28;20026;-84
2021/01/19 05:32:05;;;;;;;10.00;5.15;;;5.80;88.60;;;;;;4990288;28;20054;-84
2021/01/19 05:34:36;;;;;;;7.78;5.28;;;5.80;88.60;;;;;;5000397;28;20424;-84
2021/01/19 05:37:02;;;;;;;5.15;3.58;;;5.80;88.70;;;;;;4978637;28;20121;-85
2021/01/19 05:39:28;;;;;;;7.50;4.07;;;5.80;88.70;;;;;;4983202;28;20061;-85
2021/01/19 05:41:55;;;;;;;4.45;2.88;;;5.80;88.90;;;;;;4986761;28;20035;-84
2021/01/19 05:44:32;;;;;;;5.57;3.03;;;5.80;89.00;;;;;;4987791;28;20110;-84
2021/01/19 05:47:03;;;;;;;7.78;4.63;;;5.80;88.90;;;;;;4984721;28;20030;-85
2021/01/19 05:49:38;;;;;;;8.85;5.57;;;5.80;88.90;;;;;;4986505;28;20058;-85
2021/01/19 05:52:10;;;;;;;4.78;3.30;;;5.80;88.90;;;;;;4991965;28;20070;-84
2021/01/19 05:54:46;;;;;;;7.68;4.75;;;5.90;89.00;;;;;;4976643;28;20113;-84
2021/01/19 05:57:19;;;;;;;9.48;5.00;;;5.80;89.00;;;;;;4992260;28;20473;-84
2021/01/19 05:59:46;;;;;;;6.07;3.95;;;5.80;89.10;;;;;;4989668;28;20387;-84
2021/01/19 06:02:17;;;;;;;7.82;5.10;;;5.80;89.20;;;;;;4991867;28;20535;-85
2021/01/19 06:04:50;;;;;;;6.07;3.67;;;5.80;89.30;;;;;;4991106;28;20049;-85
2021/01/19 06:07:26;;;;;;;5.15;3.78;;;5.80;89.40;;;;;;4997045;28;20033;-86
2021/01/19 06:09:53;;;;;;;6.45;4.15;;;5.80;89.60;;;;;;4995873;28;20125;-81
2021/01/19 06:12:20;;;;;;;4.78;3.13;;;5.90;89.50;;;;;;4990303;28;20173;-84
2021/01/19 06:14:48;;;;;;;4.28;3.50;;;5.90;89.60;;;;;;4976146;28;20516;-83
2021/01/19 06:17:21;;;;;;;7.03;4.82;;;5.90;89.70;;;;;;4974975;28;20070;-83
2021/01/19 06:19:48;;;;;;;6.30;3.80;;;5.90;89.80;;;;;;4995879;28;20084;-85
2021/01/19 06:22:15;;;;;;;7.00;5.28;;;5.90;89.80;;;;;;4975279;28;20034;-85
2021/01/19 06:24:43;;;;;;;6.43;4.75;;;5.90;89.80;;;;;;5009463;28;20060;-85
2021/01/19 06:27:12;;;;;;;5.60;3.70;;;6.00;89.90;;;;;;5005716;28;20470;-85
2021/01/19 06:29:37;;;;;;;4.72;3.33;;;5.90;90.00;;;;;;4995813;28;20553;-86
2021/01/19 06:32:05;;;;;;;3.50;2.80;;;6.00;90.00;;;;;;4991178;28;20056;-85
2021/01/19 06:34:37;;;;;;;4.40;3.35;;;6.00;90.00;;;;;;4970416;28;20014;-85
2021/01/19 06:37:04;;;;;;;4.95;4.00;;;6.00;90.00;;;;;;4988800;28;20038;-84
2021/01/19 06:39:40;;;;;;;4.63;3.92;;;6.10;90.00;;;;;;4974983;28;20034;-85
2021/01/19 06:42:11;;;;;;;5.18;4.13;;;6.10;90.00;;;;;;4989291;28;20038;-86
2021/01/19 06:44:39;;;;;;;5.53;4.28;;;6.10;90.10;;;;;;4992291;28;20038;-85
2021/01/19 06:47:06;;;;;;;3.22;2.92;;;6.10;90.10;;;;;;4984687;28;20109;-85
2021/01/19 06:49:33;;;;;;;4.85;3.50;;;6.10;90.10;;;;;;4985669;28;20121;-85
2021/01/19 06:52:07;;;;;;;6.88;4.85;;;6.10;90.10;;;;;;4975099;28;20029;-85
2021/01/19 06:54:46;;;;;;;5.28;4.53;;;6.10;90.10;;;;;;4975640;28;20113;-84
2021/01/19 06:57:37;;;;;;;5.13;3.95;;;6.10;90.10;;;;;;5002920;28;20045;-84
2021/01/19 07:00:20;;;;;;;6.68;5.45;;;6.20;90.20;;;;;;5004587;28;20051;-84
2021/01/19 07:02:49;;;;;;;2.53;2.33;;;6.20;90.20;;;;;;4993512;28;20042;-85
2021/01/19 07:05:22;;;;;;;3.53;3.00;;;6.20;90.10;;;;;;4978528;28;20110;-85
2021/01/19 07:07:58;;;;;;;;;;;6.40;90.20;;;;;;4988710;28;20029;-85
2021/01/19 07:10:43;;;;;;;3.97;3.58;;;6.20;90.10;;;;;;4994144;28;19915;-85
2021/01/19 07:13:21;;;;;;;4.05;3.47;;;6.20;90.10;;;;;;4989557;28;20031;-86
2021/01/19 07:15:58;;;;;;;4.60;3.30;;;6.20;90.20;;;;;;4998936;28;20030;-86
2021/01/19 07:19:01;;;;;;;4.90;3.75;;;6.20;90.20;;;;;;4993454;28;20033;-86
2021/01/19 07:21:54;;;;;;;4.97;4.00;;;6.30;90.30;;;;;;4993812;28;20125;-86
2021/01/19 07:24:24;;;;;;;6.15;4.85;;;6.30;90.30;;;;;;4972941;28;20457;-85
2021/01/19 07:26:52;;;;;;;2.85;2.63;;;6.30;90.30;;;;;;4972716;28;20113;-86
2021/01/19 07:29:17;;;;;;;3.45;2.80;;;6.30;90.30;;;;;;4990712;28;20026;-85
2021/01/19 07:31:43;;;;;;;5.28;3.92;;;6.30;90.30;;;;;;4990530;28;20037;-84
2021/01/19 07:34:10;;;;;;;4.15;2.70;;;6.30;90.30;;;;;;4968960;28;20027;-85
2021/01/19 07:36:36;;;;;;;4.68;3.30;;;6.40;90.30;;;;;;4985696;28;20395;-86
2021/01/19 07:39:20;;;;;;;3.10;2.80;;;6.40;90.30;;;;;;4989756;28;20083;-85
2021/01/19 07:41:45;;;;;;;4.88;3.58;;;6.50;90.30;;;;;;4978897;28;20042;-84
2021/01/19 07:44:24;;;;;;;4.50;3.15;;;6.40;90.20;;;;;;4975065;28;20098;-84
2021/01/19 07:46:50;;;;;;;4.00;3.15;;;6.50;90.20;;;;;;4996992;28;20038;-85
2021/01/19 07:49:16;;;;;;;4.63;3.00;;;6.50;90.20;;;;;;4982212;28;20023;-85
2021/01/19 07:51:46;;;;;;;4.70;3.63;;;6.50;90.20;;;;;;4986174;28;20019;-86
2021/01/19 07:54:35;;;;;;;4.53;3.22;;;6.50;90.20;;;;;;4964892;28;20058;-83
2021/01/19 07:57:29;;;;;;;2.80;2.50;;;6.60;90.30;;;;;;4970472;28;20038;-83
2021/01/19 08:00:28;;;;;;;4.03;3.00;;;6.60;90.20;;;;;;4969304;28;20045;-85
2021/01/19 08:03:05;;;;;;;3.83;2.92;;;6.60;90.20;;;;;;4955846;28;20042;-84
2021/01/19 08:09:28;;;;;;;2.40;2.20;;;6.60;90.20;;;;;;5030187;28;20068;-86
2021/01/19 08:16:08;;;;;;;2.63;1.80;;;6.60;90.30;;;;;;5010525;28;20040;-86
2021/01/19 08:19:06;;;;;;;3.42;2.10;;;6.80;90.30;;;;;;5010376;28;20034;-87
2021/01/19 08:21:37;;;;;;;3.00;2.30;;;6.80;90.30;;;;;;5032437;22;20034;-87
2021/01/19 08:24:09;;;;;;;3.53;3.22;;;6.80;90.30;;;;;;5013711;28;20025;-88
2021/01/19 08:26:36;;;;;;;3.88;2.60;;;6.80;90.30;;;;;;4992999;28;20406;-87
2021/01/19 08:44:28;;;;;;;2.42;2.22;;;7.00;90.30;;;;;;5279675;23;20198;-84
2021/01/19 08:46:57;;;;;;;2.60;2.40;;;7.10;90.40;;;;;;5006424;28;20041;-87
2021/01/19 08:49:48;;;;;;;3.33;2.17;;;7.10;90.30;;;;;;4997082;28;20038;-86
2021/01/19 08:52:33;;;;;;;4.13;2.70;;;7.10;90.40;;;;;;4999914;28;20026;-85
2021/01/19 08:54:59;;;;;;;3.28;2.78;;;7.10;90.30;;;;;;4996396;28;20022;-85
2021/01/19 08:57:28;;;;;;;2.40;2.10;;;7.10;90.30;;;;;;4988600;28;20022;-88
2021/01/19 08:59:54;;;;;;;2.95;2.65;;;7.10;90.30;;;;;;4987146;23;20150;-85
2021/01/19 09:02:41;;;;;;;3.75;2.55;;;7.20;90.30;;;;;;4971111;28;20129;-86
2021/01/19 09:05:07;;;;;;;2.88;2.47;;;7.20;90.40;;;;;;4967188;28;20032;-86
2021/01/19 09:07:33;;;;;;;3.22;2.88;;;7.20;90.30;;;;;;4971145;28;20114;-86
2021/01/19 09:09:58;;;;;;;2.60;2.40;;;7.20;90.40;;;;;;4981459;28;20524;-86
2021/01/19 09:12:24;;;;;;;2.80;2.20;;;7.20;90.40;;;;;;4979951;28;20046;-87
2021/01/19 09:14:54;;;;;;;3.80;3.17;;;7.30;90.40;;;;;;4973276;28;20031;-89
2021/01/19 09:17:24;;;;;;;3.13;2.42;;;7.30;90.40;;;;;;4974875;28;20039;-85
2021/01/19 09:20:00;;;;;;;2.65;2.42;;;7.30;90.40;;;;;;5008973;23;20118;-84
2021/01/19 09:22:31;;;;;;;4.90;2.40;;;7.30;90.50;;;;;;5021530;28;20045;-85
2021/01/19 09:24:57;;;;;;;3.03;2.63;;;7.40;90.50;;;;;;5024238;28;20017;-84
2021/01/19 09:27:22;;;;;;;2.88;2.60;;;7.40;90.40;;;;;;5032375;28;20034;-85
2021/01/19 09:29:48;;;;;;;2.55;1.90;;;7.50;90.50;;;;;;5051218;28;20014;-86
2021/01/19 09:32:18;;;;;;;2.30;2.10;;;7.50;90.40;;;;;;5013529;28;20403;-85
2021/01/19 09:37:31;;;;;;;2.88;2.30;;;7.60;90.40;;;;;;5006093;28;20119;-86
2021/01/19 09:39:57;;;;;;;2.10;1.90;;;7.50;90.30;;;;;;5049292;22;20498;-86
2021/01/19 09:42:30;;;;;;;2.90;2.35;;;7.50;90.40;;;;;;4992407;28;20026;-89
2021/01/19 09:45:17;;;;;;;2.20;2.03;;;7.50;90.40;;;;;;4990103;28;20045;-84
2021/01/19 09:47:57;;;;;;;2.65;2.40;;;7.60;90.40;;;;;;4989504;28;20039;-85
2021/01/19 09:50:31;;;;;;;2.70;2.50;;;7.60;90.40;;;;;;4995300;28;20022;-87
2021/01/19 09:52:57;;;;;;;2.28;1.80;;;7.60;90.40;;;;;;4989983;28;20030;-86
2021/01/19 09:55:42;;;;;;;2.45;2.25;;;7.70;90.40;;;;;;4986467;28;20073;-86
2021/01/19 09:58:07;;;;;;;2.10;1.90;;;7.70;90.40;;;;;;4987191;28;20034;-86
2021/01/19 10:00:45;;;;;;;2.83;2.42;;;7.70;90.40;;;;;;4987729;28;20600;-85
2021/01/19 10:03:20;;;;;;;3.22;2.13;;;7.70;90.50;;;;;;4974838;28;20753;-86
2021/01/19 10:06:13;;;;;;;3.08;2.78;;;7.80;90.50;;;;;;4989694;28;20080;-85
2021/01/19 10:08:54;;;;;;;2.80;2.50;;;7.80;90.50;;;;;;4985224;28;20030;-86
2021/01/19 10:11:37;;;;;;;4.03;3.42;;;7.80;90.50;;;;;;4991772;28;20053;-87
2021/01/19 10:14:12;;;;;;;;;;;7.80;90.60;;;;;;4986815;28;20019;-86
2021/01/19 10:17:07;;;;;;;3.60;3.17;;;7.90;90.60;;;;;;4993506;28;19913;-86
2021/01/19 10:19:45;;;;;;;;;;;;;;;;;;;;;
2021/01/19 10:22:11;;;;;;;3.47;3.00;;;7.90;90.60;;;;;;4988178;28;20041;-86
2021/01/19 10:25:06;;;;;;;2.80;2.60;;;8.00;90.70;;;;;;4996927;28;20074;-85
2021/01/19 10:27:37;;;;;;;3.45;3.03;;;8.00;90.70;;;;;;5001628;28;20416;-87
2021/01/19 10:30:04;;;;;;;3.75;3.00;;;8.10;90.70;;;;;;4989317;28;20027;-87
2021/01/19 10:32:50;;;;;;;3.03;2.72;;;8.10;90.70;;;;;;4986372;28;20053;-87
2021/01/19 10:35:37;;;;;;;5.32;3.67;;;8.10;90.70;;;;;;4992242;28;20055;-87
2021/01/19 10:40:30;;;;;;;2.80;2.60;;;8.20;90.70;;;;;;5178353;22;20183;-85
2021/01/19 10:43:17;;;;;;;3.80;3.40;;;8.30;90.80;;;;;;5023518;28;20089;-84
2021/01/19 10:45:43;;;;;;;4.57;3.20;;;8.30;90.80;;;;;;5004435;28;20036;-84
2021/01/19 10:48:28;;;;;;;2.85;2.60;;;8.40;90.80;;;;;;5000448;28;20018;-85
2021/01/19 10:51:13;;;;;;;2.20;2.05;;;8.50;90.80;;;;;;5004087;28;20034;-86
2021/01/19 10:53:45;;;;;;;3.00;2.70;;;8.50;90.80;;;;;;5006738;28;20030;-90
2021/01/19 10:56:14;;;;;;;2.95;2.30;;;8.60;90.70;;;;;;5013012;28;20073;-86
2021/01/19 10:58:40;;;;;;;2.95;2.65;;;8.60;90.80;;;;;;5002372;28;20089;-86
2021/01/19 11:01:05;;;;;;;3.33;2.40;;;8.70;90.90;;;;;;4994258;28;20037;-86
2021/01/19 11:03:34;;;;;;;3.00;2.63;;;8.80;90.90;;;;;;4992639;28;20044;-86
2021/01/19 11:06:41;;;;;;;3.72;2.90;;;8.90;90.90;;;;;;5007570;28;20129;-85
2021/01/19 11:09:07;;;;;;;3.03;2.60;;;9.10;91.00;;;;;;5013512;28;20030;-84
2021/01/19 11:11:46;;;;;;;3.72;3.20;;;9.10;91.00;;;;;;5017713;28;20029;-85
2021/01/19 11:14:12;;;;;;;4.43;2.60;;;9.10;90.90;;;;;;5013111;28;20025;-85
2021/01/19 11:16:50;;;;;;;4.03;2.83;;;9.20;90.90;;;;;;5006076;28;20022;-83
2021/01/19 11:19:16;;;;;;;3.17;2.88;;;9.20;90.90;;;;;;5012120;28;20105;-84
2021/01/19 11:21:48;;;;;;;2.75;2.25;;;9.30;91.00;;;;;;5004993;28;20133;-84
2021/01/19 11:24:14;;;;;;;3.38;2.58;;;9.30;90.90;;;;;;5003826;28;20088;-83
2021/01/19 11:26:57;;;;;;;5.57;2.60;;;9.40;90.90;;;;;;5006882;28;20030;-83
2021/01/19 11:29:23;;;;;;;2.65;2.40;;;9.40;90.90;;;;;;5015180;28;20130;-84
2021/01/19 11:32:11;;;;;;;3.13;2.45;;;9.40;90.90;;;;;;5008632;28;20471;-83
2021/01/19 11:34:36;;;;;;;2.50;2.10;;;9.50;91.00;;;;;;4990450;28;20570;-83
2021/01/19 11:37:23;;;;;;;2.33;2.13;;;9.50;90.90;;;;;;5003349;28;20038;-83
2021/01/19 11:40:02;;;;;;;2.42;2.22;;;9.60;90.90;;;;;;4986827;28;20109;-84
2021/01/19 11:42:55;;;;;;;2.53;2.30;;;9.60;90.90;;;;;;5003811;28;20133;-85
2021/01/19 11:45:21;;;;;;;3.42;2.35;;;9.60;90.90;;;;;;5008409;28;20169;-84
2021/01/19 11:47:47;;;;;;;2.15;1.88;;;9.70;90.90;;;;;;5004102;28;20480;-84
2021/01/19 11:50:16;;;;;;;2.97;2.67;;;9.70;90.90;;;;;;5007188;28;20121;-84
2021/01/19 11:52:42;;;;;;;3.13;2.42;;;9.70;90.90;;;;;;4979091;28;20033;-85
2021/01/19 11:55:08;;;;;;;3.28;2.72;;;9.70;90.90;;;;;;5007613;28;20499;-84
2021/01/19 11:57:40;;;;;;;2.40;2.20;;;9.70;90.80;;;;;;5008172;28;20021;-84
2021/01/19 12:03:01;;;;;;;3.25;2.70;;;9.80;90.80;;;;;;5003520;28;20042;-86
2021/01/19 12:05:31;;;;;;;3.55;2.90;;;9.80;90.80;;;;;;5001659;28;20030;-86
2021/01/19 12:08:22;;;;;;;3.60;3.30;;;9.80;90.90;;;;;;5004706;28;20499;-85
2021/01/19 12:10:47;;;;;;;2.88;2.58;;;9.80;90.90;;;;;;4997596;28;20044;-86
2021/01/19 12:13:25;;;;;;;3.13;2.50;;;9.90;90.90;;;;;;5020638;28;20026;-86
2021/01/19 12:19:54;;;;;;;3.20;2.72;;;9.90;90.90;;;;;;4995361;22;20072;-86
2021/01/19 12:22:56;;;;;;;3.10;2.50;;;10.00;90.90;;;;;;5016314;28;20057;-86
2021/01/19 12:25:22;;;;;;;3.33;2.78;;;10.00;90.90;;;;;;5009423;22;20041;-86
2021/01/19 12:27:49;;;;;;;3.10;2.80;;;10.00;90.80;;;;;;5017246;28;20033;-85
2021/01/19 12:30:24;;;;;;;3.63;3.08;;;10.00;90.90;;;;;;5018016;28;20071;-87
2021/01/19 12:33:00;;;;;;;4.25;3.60;;;10.10;90.90;;;;;;5013458;28;20034;-88
2021/01/19 12:35:55;;;;;;;5.72;4.03;;;10.10;90.90;;;;;;5015892;28;20017;-88
2021/01/19 12:38:22;;;;;;;5.47;4.68;;;10.10;91.00;;;;;;5014171;28;20042;-88
2021/01/19 12:40:48;;;;;;;4.60;3.55;;;10.20;91.00;;;;;;5022168;28;20017;-87
2021/01/19 12:43:14;;;;;;;6.70;4.65;;;10.20;91.00;;;;;;5018880;28;20045;-88
2021/01/19 12:45:40;;;;;;;6.65;4.35;;;10.20;90.90;;;;;;5022836;28;20026;-87
2021/01/19 12:48:06;;;;;;;6.55;4.70;;;10.20;91.00;;;;;;5019113;28;20651;-86
2021/01/19 12:50:38;;;;;;;5.65;4.28;;;10.20;91.00;;;;;;5021019;28;20026;-84
2021/01/19 12:53:11;;;;;;;5.85;4.65;;;10.30;91.00;;;;;;5024022;28;20117;-86
2021/01/19 12:55:36;;;;;;;5.05;3.75;;;10.30;91.00;;;;;;5017498;28;20025;-87
2021/01/19 12:58:02;;;;;;;5.75;4.00;;;10.30;91.00;;;;;;5017181;28;20475;-86
2021/01/19 13:00:28;;;;;;;5.13;3.95;;;10.30;91.00;;;;;;5014584;28;20017;-86
2021/01/19 13:02:54;;;;;;;4.57;3.15;;;10.40;91.00;;;;;;5010087;28;20038;-86
2021/01/19 13:05:20;;;;;;;6.93;3.80;;;10.40;90.90;;;;;;5016493;28;20033;-88
2021/01/19 13:07:46;;;;;;;4.65;3.25;;;10.40;90.90;;;;;;5009485;28;20040;-85
2021/01/19 13:10:12;;;;;;;7.00;4.00;;;10.40;90.90;;;;;;5010132;28;20113;-85
2021/01/19 13:12:41;;;;;;;6.20;2.70;;;10.40;90.90;;;;;;5002259;28;20076;-85
2021/01/19 13:15:09;;;;;;;5.75;3.05;;;10.50;90.90;;;;;;5006174;28;20022;-84
2021/01/19 13:17:35;;;;;;;3.97;2.80;;;10.50;90.90;;;;;;5004723;28;20029;-84
2021/01/19 13:20:03;;;;;;;5.90;3.40;;;10.50;90.90;;;;;;5001782;28;20038;-86
2021/01/19 13:22:28;;;;;;;6.72;3.63;;;10.60;90.90;;;;;;5006539;28;20385;-86
2021/01/19 13:24:54;;;;;;;4.10;2.60;;;10.60;90.90;;;;;;5009252;28;20024;-86
2021/01/19 13:27:20;;;;;;;5.13;2.58;;;10.60;90.90;;;;;;5007240;28;20487;-86
2021/01/19 13:29:47;;;;;;;5.47;2.60;;;10.60;90.90;;;;;;4995014;28;20034;-86
2021/01/19 13:32:14;;;;;;;8.13;3.03;;;10.70;90.90;;;;;;5006719;28;20030;-87
2021/01/19 13:34:39;;;;;;;8.43;2.83;;;10.60;90.90;;;;;;5010013;28;20479;-86
2021/01/19 13:37:09;;;;;;;4.95;1.80;;;10.60;90.90;;;;;;5008839;28;20053;-88
2021/01/19 13:39:36;;;;;;;6.65;2.60;;;10.60;90.90;;;;;;5007074;28;20014;-87
2021/01/19 13:42:02;;;;;;;5.07;2.10;;;10.70;90.80;;;;;;5007155;28;20038;-87
2021/01/19 13:44:38;;;;;;;5.60;2.20;;;10.80;90.80;;;;;;5006909;28;20033;-88
2021/01/19 13:47:05;;;;;;;5.38;2.28;;;10.80;90.80;;;;;;5004773;28;20050;-87
2021/01/19 13:49:43;;;;;;;4.32;1.90;;;10.80;90.80;;;;;;5009062;28;20026;-87
2021/01/19 13:52:18;;;;;;;5.53;2.25;;;10.80;90.70;;;;;;5005733;28;20068;-88